Time;durP1;ratioP1;P1;durP2;ratioP2;P2;SDS_P1;SDS_P2;PMS_P1;PMS_P2;Temp;Humidity;BMP_temperature;BMP_pressure;BME280_temperature;BME280_humidity;BME280_pressure;Samples;Min_cycle;Max_cycle;Signal;HPM_P1;HPM_P2
2022/02/18 00:01:17;;;;;;;;;;;7.30;99.90;;;6.07;73.61;95466.06;10428284;28;1815;-71
2022/02/18 00:06:21;;;;;;;;;;;7.20;99.90;;;6.06;74.50;95458.34;10415653;28;2422;-72
2022/02/18 00:11:24;;;;;;;;;;;7.10;99.90;;;6.00;75.65;95468.16;10414011;28;1821;-70
2022/02/18 00:16:27;;;;;;;;;;;7.10;99.90;;;6.04;75.93;95450.56;10426001;28;2444;-71
2022/02/18 00:21:30;;;;;;;;;;;7.00;99.90;;;6.18;76.14;95432.28;10409973;28;2191;-71
2022/02/18 00:26:34;;;;;;;;;;;7.10;99.90;;;6.21;76.72;95424.56;10407722;28;2218;-70
2022/02/18 00:31:37;;;;;;;;;;;7.20;99.90;;;6.21;76.88;95439.78;10414212;28;1870;-71
2022/02/18 00:36:40;;;;;;;;;;;7.20;99.90;;;6.12;77.51;95433.31;10411634;28;1898;-70
2022/02/18 00:41:43;;;;;;;;;;;7.30;99.90;;;6.07;78.21;95428.72;10371944;28;1943;-73
2022/02/18 00:46:46;;;;;;;;;;;7.10;99.90;;;5.99;78.51;95433.72;10407496;28;1910;-72
2022/02/18 00:51:49;;;;;;;;;;;7.10;99.90;;;6.03;79.39;95424.13;10409410;28;1837;-70
2022/02/18 00:56:52;;;;;;;;;;;7.00;99.90;;;6.08;79.17;95419.66;10404583;28;1903;-70
2022/02/18 01:01:55;;;;;;;;;;;7.10;99.90;;;6.11;79.41;95424.50;10365585;28;1960;-70
2022/02/18 01:06:58;;;;;;;;;;;7.10;99.90;;;5.93;80.56;95457.69;10400600;28;1979;-70
2022/02/18 01:12:02;;;;;;;;;;;7.10;99.90;;;5.97;81.11;95428.63;10409667;28;1940;-70
2022/02/18 01:17:05;;;;;;;;;;;7.00;99.90;;;5.86;82.02;95422.38;10405181;28;1880;-70
2022/02/18 01:22:09;;;;;;;;;;;7.00;99.90;;;5.85;82.37;95420.75;10408660;28;1841;-71
2022/02/18 01:27:12;;;;;;;;;;;6.90;99.90;;;5.89;83.10;95416.50;10399251;28;1980;-70
2022/02/18 01:32:15;;;;;;;;;;;7.00;99.90;;;5.82;83.96;95415.91;10409426;28;1798;-71
2022/02/18 01:37:18;;;;;;;;;;;6.90;99.90;;;5.95;83.63;95423.53;10407374;28;1854;-71
2022/02/18 01:42:21;;;;;;;;;;;6.90;99.90;;;5.97;83.49;95413.41;10416066;28;1876;-71
2022/02/18 01:47:25;;;;;;;;;;;7.00;99.90;;;6.04;83.35;95407.06;10413750;28;1983;-71
2022/02/18 01:52:28;;;;;;;;;;;7.00;99.90;;;6.20;82.91;95406.94;10412564;28;1775;-72
2022/02/18 01:57:31;;;;;;;;;;;7.00;99.90;;;6.25;82.30;95419.53;10398432;28;2326;-70
2022/02/18 02:02:34;;;;;;;;;;;7.20;99.90;;;6.25;81.97;95411.53;10419217;28;1908;-71
2022/02/18 02:07:37;;;;;;;;;;;7.20;99.90;;;6.21;82.71;95413.09;10412754;28;1961;-71
2022/02/18 02:12:41;;;;;;;;;;;7.20;99.90;;;6.30;82.07;95406.22;10404195;28;2004;-70
2022/02/18 02:17:48;;;;;;;;;;;7.20;99.90;;;6.39;82.07;95396.69;10399081;28;2043;-71
2022/02/18 02:22:55;;;;;;;;;;;7.30;99.90;;;6.45;81.39;95390.31;10415436;28;2014;-71
2022/02/18 02:28:07;;;;;;;;;;;7.40;99.90;;;6.47;80.47;95385.50;10413905;28;1953;-70
2022/02/18 02:33:19;;;;;;;;;;;7.40;99.90;;;6.44;81.48;95382.56;10414740;28;2062;-70
2022/02/18 02:38:22;;;;;;;;;;;7.40;99.90;;;6.57;80.81;95362.63;10414775;28;2061;-71
2022/02/18 02:43:27;;;;;;;;;;;7.50;99.90;;;6.71;80.53;95347.75;10403951;28;2061;-70
2022/02/18 02:48:30;;;;;;;;;;;7.60;99.90;;;6.78;79.90;95359.00;10415727;28;2056;-70
2022/02/18 02:53:33;;;;;;;;;;;7.70;99.90;;;6.79;79.80;95368.63;10404721;28;2059;-70
2022/02/18 02:58:37;;;;;;;;;;;7.70;99.90;;;6.85;79.99;95372.91;10412158;28;1938;-70
2022/02/18 03:03:41;;;;;;;;;;;7.80;99.90;;;6.90;80.42;95383.63;10405776;28;2249;-71
2022/02/18 03:08:44;;;;;;;;;;;7.80;99.90;;;6.97;79.89;95394.91;10411225;28;1971;-70
2022/02/18 03:13:47;;;;;;;;;;;7.90;99.90;;;6.95;79.79;95397.03;10407488;28;1870;-71
2022/02/18 03:18:50;;;;;;;;;;;8.00;99.90;;;7.06;78.71;95408.56;10410628;28;1918;-71
2022/02/18 03:23:53;;;;;;;;;;;7.90;99.90;;;7.07;78.50;95396.03;10421110;28;1923;-71
2022/02/18 03:28:57;;;;;;;;;;;8.00;99.90;;;7.13;78.46;95416.38;10421765;28;1886;-70
2022/02/18 03:34:00;;;;;;;;;;;8.00;99.90;;;7.04;79.32;95411.50;10416177;28;1898;-71
2022/02/18 03:39:03;;;;;;;;;;;8.00;99.90;;;7.00;80.05;95401.59;10414873;28;1889;-70
2022/02/18 03:44:06;;;;;;;;;;;7.90;99.90;;;6.92;80.86;95376.16;10413489;28;1830;-70
2022/02/18 03:49:09;;;;;;;;;;;7.90;99.90;;;6.94;81.55;95358.00;10408656;28;1914;-70
2022/02/18 03:54:12;;;;;;;;;;;7.90;99.90;;;6.94;82.95;95367.91;10402633;28;1922;-71
2022/02/18 03:59:15;;;;;;;;;;;8.00;99.90;;;6.99;82.83;95414.13;10413967;28;1846;-70
2022/02/18 04:04:18;;;;;;;;;;;8.00;99.90;;;7.04;83.35;95395.47;10415109;28;1809;-71
2022/02/18 04:09:22;;;;;;;;;;;8.00;99.90;;;7.01;83.68;95389.84;10410894;28;1973;-70
2022/02/18 04:14:25;;;;;;;;;;;8.00;99.90;;;7.04;83.26;95379.44;10409868;28;1902;-70
2022/02/18 04:19:28;;;;;;;;;;;8.10;99.90;;;7.03;83.31;95371.69;10401161;28;1862;-70
2022/02/18 04:24:51;;;;;;;;;;;8.00;99.90;;;6.78;84.78;95372.34;10405348;28;1983;-71
2022/02/18 04:29:55;;;;;;;;;;;7.90;99.90;;;6.71;85.70;95361.09;10404346;28;1978;-71
2022/02/18 04:34:58;;;;;;;;;;;7.70;99.90;;;6.68;85.44;95364.28;10394676;28;1922;-71
2022/02/18 04:40:01;;;;;;;;;;;7.60;99.90;;;6.69;85.63;95368.56;10402434;28;1896;-71
2022/02/18 04:45:04;;;;;;;;;;;7.70;99.90;;;6.68;85.70;95353.59;10410903;28;1771;-71
2022/02/18 04:50:07;;;;;;;;;;;7.60;99.90;;;6.78;84.51;95350.97;10425913;28;1977;-70
2022/02/18 04:55:11;;;;;;;;;;;7.70;99.90;;;6.85;84.22;95343.53;10383958;28;2138;-70
2022/02/18 05:00:14;;;;;;;;;;;7.70;99.90;;;6.84;83.76;95344.59;10376086;28;2048;-71
2022/02/18 05:05:17;;;;;;;;;;;7.80;99.90;;;6.77;84.67;95341.38;10423951;28;1846;-71
2022/02/18 05:10:20;;;;;;;;;;;7.80;99.90;;;6.74;84.24;95333.84;10407190;28;1978;-71
2022/02/18 05:15:24;;;;;;;;;;;7.80;99.90;;;6.72;84.58;95327.97;10402027;28;1779;-71
2022/02/18 05:20:27;;;;;;;;;;;7.70;99.90;;;6.70;85.36;95327.44;10404424;28;1892;-71
2022/02/18 05:25:31;;;;;;;;;;;7.70;99.90;;;6.62;86.17;95322.59;10395526;28;1922;-71
2022/02/18 05:30:35;;;;;;;;;;;7.60;99.90;;;6.59;86.24;95325.78;10407320;28;1977;-72
2022/02/18 05:35:38;;;;;;;;;;;7.60;99.90;;;6.46;87.15;95329.72;10363896;28;2059;-72
2022/02/18 05:40:41;;;;;;;;;;;7.60;99.90;;;6.44;87.44;95321.97;10360075;28;2271;-71
2022/02/18 05:45:45;;;;;;;;;;;7.50;99.90;;;6.56;86.91;95318.28;10406802;28;2211;-70
2022/02/18 05:50:48;;;;;;;;;;;7.50;99.90;;;6.62;86.51;95323.41;10382381;28;1985;-71
2022/02/18 05:55:51;;;;;;;;;;;7.60;99.90;;;6.45;87.28;95314.75;10399357;28;2183;-70
2022/02/18 06:00:54;;;;;;;;;;;7.50;99.90;;;6.31;88.69;95303.72;10399522;28;1952;-70
2022/02/18 06:05:57;;;;;;;;;;;7.40;99.90;;;6.40;88.85;95306.72;10412049;28;1878;-71
2022/02/18 06:11:00;;;;;;;;;;;7.40;99.90;;;6.55;88.14;95305.97;10410128;28;2017;-70
2022/02/18 06:16:03;;;;;;;;;;;7.50;99.90;;;6.57;88.30;95312.69;10405076;28;1889;-70
2022/02/18 06:21:06;;;;;;;;;;;7.50;99.90;;;6.57;88.10;95314.56;10363251;28;1999;-71
2022/02/18 06:26:10;;;;;;;;;;;7.50;99.90;;;6.56;88.37;95318.28;10366017;28;1962;-71
2022/02/18 06:31:13;;;;;;;;;;;7.60;99.90;;;6.72;88.22;95306.59;10415043;28;2040;-71
2022/02/18 06:36:16;;;;;;;;;;;7.60;99.90;;;6.92;87.10;95304.00;10437223;28;1782;-71
2022/02/18 06:41:19;;;;;;;;;;;7.70;99.90;;;7.04;86.70;95312.59;10409035;28;1867;-71
2022/02/18 06:46:22;;;;;;;;;;;7.80;99.90;;;7.12;86.13;95310.50;10408220;28;1986;-70
2022/02/18 06:51:25;;;;;;;;;;;7.90;99.90;;;7.27;85.71;95283.81;10404649;28;1825;-71
2022/02/18 06:56:28;;;;;;;;;;;8.10;99.90;;;7.33;84.78;95285.44;10373912;28;1917;-72
2022/02/18 07:01:32;;;;;;;;;;;8.10;99.90;;;7.49;84.20;95275.56;10405330;28;2064;-71
2022/02/18 07:06:35;;;;;;;;;;;8.20;99.90;;;7.68;82.18;95265.13;10412448;28;1969;-71
2022/02/18 07:11:38;;;;;;;;;;;8.40;99.90;;;7.91;82.05;95255.78;10403512;28;1894;-72
2022/02/18 07:16:42;;;;;;;;;;;8.50;99.90;;;7.90;80.50;95256.84;10405128;28;1830;-71
2022/02/18 07:21:45;;;;;;;;;;;8.70;99.90;;;8.01;80.72;95259.22;10406497;28;1474;-71
2022/02/18 07:26:49;;;;;;;;;;;8.70;99.90;;;8.08;80.31;95251.75;10408072;28;1914;-72
2022/02/18 07:31:53;;;;;;;;;;;8.80;99.90;;;8.07;80.31;95239.41;10406051;28;1950;-70
2022/02/18 07:36:56;;;;;;;;;;;8.90;99.90;;;8.34;78.40;95232.94;10409978;28;1855;-70
2022/02/18 07:41:59;;;;;;;;;;;9.00;99.90;;;8.57;75.97;95224.31;10403350;28;1949;-70
2022/02/18 07:47:03;;;;;;;;;;;9.20;99.90;;;8.68;76.51;95224.28;10376145;28;1933;-73
2022/02/18 07:52:23;;;;;;;;;;;9.40;99.90;;;8.71;75.78;95223.72;10393326;28;1945;-70
2022/02/18 07:57:25;;;;;;;;;;;9.50;99.90;;;8.77;78.51;95220.72;10413935;28;2039;-70
2022/02/18 08:02:28;;;;;;;;;;;9.60;99.90;;;8.71;77.33;95202.28;10416292;28;1921;-70
2022/02/18 08:07:31;;;;;;;;;;;9.60;99.90;;;9.00;74.01;95189.78;10412591;28;2003;-73
2022/02/18 08:12:34;;;;;;;;;;;9.60;99.90;;;9.15;72.85;95181.66;10398725;28;1915;-69
2022/02/18 08:17:37;;;;;;;;;;;9.80;99.90;;;9.21;72.42;95172.47;10407785;28;1823;-69
2022/02/18 08:22:40;;;;;;;;;;;9.90;99.90;;;9.36;70.73;95155.50;10407955;28;2038;-70
2022/02/18 08:27:44;;;;;;;;;;;10.10;99.90;;;9.46;69.76;95152.72;10406152;28;1977;-74
2022/02/18 08:32:47;;;;;;;;;;;10.10;99.90;;;9.83;67.76;95145.94;10413585;28;1970;-70
2022/02/18 08:37:50;;;;;;;;;;;10.30;99.90;;;9.93;67.47;95137.00;10403278;28;1822;-71
2022/02/18 08:42:53;;;;;;;;;;;10.60;99.90;;;9.80;71.51;95121.53;10416448;28;1877;-71
2022/02/18 08:47:57;;;;;;;;;;;10.70;99.90;;;9.29;77.30;95112.09;10408685;28;1973;-70
2022/02/18 08:53:00;;;;;;;;;;;10.50;99.90;;;9.05;82.47;95109.34;10400834;28;1862;-71
2022/02/18 08:58:03;;;;;;;;;;;10.20;99.90;;;9.01;85.83;95105.59;10405347;28;1963;-70
2022/02/18 09:03:06;;;;;;;;;;;10.00;99.90;;;8.98;85.43;95092.78;10407791;28;1897;-70
2022/02/18 09:08:09;;;;;;;;;;;10.00;99.90;;;8.96;84.32;95089.56;10403527;28;1930;-70
2022/02/18 09:13:12;;;;;;;;;;;9.90;99.90;;;9.00;86.37;95087.94;10407721;28;1834;-70
2022/02/18 09:18:18;;;;;;;;;;;9.80;99.90;;;9.32;85.21;95067.81;10453728;28;1775;-70
2022/02/18 09:23:22;;;;;;;;;;;10.00;99.90;;;9.44;84.46;95069.03;10435856;28;1810;-71
2022/02/18 09:28:26;;;;;;;;;;;10.20;99.90;;;9.56;83.76;95059.81;10436366;28;1952;-70
2022/02/18 09:33:29;;;;;;;;;;;10.30;99.90;;;9.87;83.47;95044.97;10406066;28;1831;-72
2022/02/18 09:38:32;;;;;;;;;;;10.50;99.90;;;10.32;79.88;95029.41;10413134;28;1878;-71
2022/02/18 09:43:36;;;;;;;;;;;10.80;99.90;;;10.36;76.42;95021.53;10419830;28;1846;-71
2022/02/18 09:48:39;;;;;;;;;;;11.00;99.90;;;10.47;73.40;95007.69;10412644;28;1914;-71
2022/02/18 09:53:43;;;;;;;;;;;;;;;10.79;70.83;95003.44;10389847;28;2097;-70
2022/02/18 09:58:47;;;;;;;;;;;;;;;10.86;72.79;94987.72;10397217;28;1866;-71
2022/02/18 10:03:50;;;;;;;;;;;;;;;11.20;68.17;94975.88;10429826;28;2194;-73
2022/02/18 10:08:54;;;;;;;;;;;;;;;11.13;68.46;94965.47;10412155;28;1910;-72
2022/02/18 10:14:17;;;;;;;;;;;;;;;11.33;69.82;94967.81;10411186;28;1855;-72
2022/02/18 10:19:22;;;;;;;;;;;;;;;11.44;66.88;94948.78;10433399;28;1821;-72
2022/02/18 10:24:25;;;;;;;;;;;;;;;11.73;66.20;94941.19;10418088;28;2021;-72
2022/02/18 10:29:29;;;;;;;;;;;;;;;11.95;64.50;94939.69;10428629;28;1918;-74
2022/02/18 10:34:33;;;;;;;;;;;;;;;12.05;62.52;94928.72;10419558;28;1956;-72
2022/02/18 10:39:38;;;;;;;;;;;;;;;12.36;61.47;94908.06;10409938;28;1775;-72
2022/02/18 10:44:42;;;;;;;;;;;;;;;12.32;61.21;94896.28;10412107;28;1837;-73
2022/02/18 10:49:45;;;;;;;;;;;;;;;12.41;60.28;94878.28;10394871;28;2197;-73
2022/02/18 10:54:50;;;;;;;;;;;;;;;12.65;59.06;94874.47;10426281;28;1855;-70
2022/02/18 10:59:53;;;;;;;;;;;13.30;99.90;;;12.59;58.93;94862.22;10415679;28;1656;-69
2022/02/18 11:05:01;;;;;;;;;;;13.30;99.90;;;12.73;57.42;94848.69;10408431;28;1837;-69
2022/02/18 11:10:05;;;;;;;;;;;;;;;13.23;55.12;94838.41;10409445;28;1926;-69
2022/02/18 11:15:07;;;;;;;;;;;13.70;99.90;;;13.22;54.00;94823.34;10410570;28;1958;-69
2022/02/18 11:20:13;;;;;;;;;;;13.70;99.90;;;13.08;54.23;94809.94;10416019;28;1778;-70
2022/02/18 11:25:16;;;;;;;;;;;13.80;99.90;;;12.94;54.00;94811.97;10408715;28;1963;-69
2022/02/18 11:30:19;;;;;;;;;;;13.70;99.90;;;13.00;53.95;94805.31;10412325;28;1979;-70
2022/02/18 11:35:23;;;;;;;;;;;13.70;99.90;;;13.10;53.04;94786.13;10403205;28;1798;-70
2022/02/18 11:40:25;;;;;;;;;;;13.90;99.90;;;13.03;53.63;94782.31;10407184;28;2026;-69
2022/02/18 11:45:28;;;;;;;;;;;13.90;99.90;;;13.13;52.41;94768.53;10401042;28;1904;-70
2022/02/18 11:50:31;;;;;;;;;;;13.90;99.90;;;13.09;53.85;94762.16;10415292;28;2009;-71
2022/02/18 11:55:35;;;;;;;;;;;13.90;99.90;;;12.93;53.42;94751.03;10401335;28;1817;-70
2022/02/18 12:00:38;;;;;;;;;;;13.80;99.90;;;12.76;52.73;94740.19;10404894;28;1900;-70
2022/02/18 12:05:41;;;;;;;;;;;13.70;99.90;;;12.84;52.78;94737.50;10411108;28;2087;-69
2022/02/18 12:10:44;;;;;;;;;;;13.70;99.90;;;12.97;52.46;94720.41;10414080;28;1890;-69
2022/02/18 12:15:47;;;;;;;;;;;13.70;99.90;;;12.82;52.79;94714.66;10402463;28;1881;-70
2022/02/18 12:20:56;;;;;;;;;;;13.70;99.90;;;12.88;51.94;94697.22;10390922;28;1907;-70
2022/02/18 12:25:59;;;;;;;;;;;13.70;99.90;;;12.78;53.25;94684.81;10387604;28;2206;-70
2022/02/18 12:31:06;;;;;;;;;;;13.70;99.90;;;12.76;52.96;94672.75;10387362;28;2313;-71
2022/02/18 12:36:09;;;;;;;;;;;13.60;99.90;;;12.69;53.23;94667.84;10368145;28;1997;-71
2022/02/18 12:41:12;;;;;;;;;;;13.60;99.90;;;12.82;52.82;94666.91;10388154;28;1892;-72
2022/02/18 12:46:16;;;;;;;;;;;13.60;99.90;;;12.90;53.20;94647.25;10395323;28;1970;-70
2022/02/18 12:51:22;;;;;;;;;;;13.80;99.90;;;13.03;52.47;94636.63;10418523;28;2118;-71
2022/02/18 12:56:25;;;;;;;;;;;13.80;99.90;;;12.82;53.03;94631.84;10404293;28;1848;-71
2022/02/18 13:01:28;;;;;;;;;;;13.80;99.90;;;12.88;52.84;94621.72;10400828;28;2003;-69
2022/02/18 13:06:33;;;;;;;;;;;13.70;99.90;;;12.98;53.16;94610.63;10410811;28;1806;-69
2022/02/18 13:11:35;;;;;;;;;;;13.80;99.90;;;12.92;52.38;94599.19;10390008;28;2015;-68
2022/02/18 13:16:39;;;;;;;;;;;13.80;99.90;;;12.88;53.42;94597.44;10377049;28;1909;-70
2022/02/18 13:21:42;;;;;;;;;;;13.80;99.90;;;12.64;53.79;94605.97;10380599;28;1977;-70
2022/02/18 13:26:47;;;;;;;;;;;13.60;99.90;;;12.57;53.98;94573.28;10381318;28;2241;-67
2022/02/18 13:31:55;;;;;;;;;;;13.50;99.90;;;12.45;54.43;94572.00;10380381;28;2339;-69
2022/02/18 13:36:58;;;;;;;;;;;13.40;99.90;;;12.52;53.59;94568.03;10415145;28;2315;-69
2022/02/18 13:42:01;;;;;;;;;;;13.40;99.90;;;12.81;52.27;94559.38;10389778;28;1907;-69
2022/02/18 13:47:05;;;;;;;;;;;13.50;99.90;;;13.01;51.47;94547.13;10395991;28;1920;-68
2022/02/18 13:52:08;;;;;;;;;;;13.70;99.90;;;12.88;51.30;94533.50;10418638;28;1918;-68
2022/02/18 13:57:12;;;;;;;;;;;13.80;99.90;;;12.73;51.53;94525.09;10404419;28;1898;-68
2022/02/18 14:02:15;;;;;;;;;;;13.70;99.90;;;12.58;52.32;94516.34;10402684;28;1964;-68
2022/02/18 14:07:19;;;;;;;;;;;13.60;99.90;;;12.49;52.17;94509.38;10389831;28;1906;-69
2022/02/18 14:12:22;;;;;;;;;;;13.50;99.90;;;12.57;51.34;94506.69;10388817;28;1987;-68
2022/02/18 14:17:26;;;;;;;;;;;13.40;99.90;;;12.76;51.48;94503.69;10386198;28;1876;-68
2022/02/18 14:22:29;;;;;;;;;;;13.60;99.90;;;12.87;51.48;94504.94;10387930;28;1865;-69
2022/02/18 14:27:32;;;;;;;;;;;13.60;99.90;;;13.16;50.62;94500.78;10401544;28;2131;-68
2022/02/18 14:32:36;;;;;;;;;;;13.80;99.90;;;13.21;51.11;94489.84;10404719;28;2000;-67
2022/02/18 14:37:44;;;;;;;;;;;14.00;99.90;;;13.65;50.31;94474.31;10397555;28;2191;-69
2022/02/18 14:42:47;;;;;;;;;;;14.20;99.90;;;13.58;50.10;94471.31;10387367;28;2210;-68
2022/02/18 14:47:52;;;;;;;;;;;14.30;99.90;;;13.61;50.26;94462.56;10397293;28;1914;-69
2022/02/18 14:52:55;;;;;;;;;;;14.40;99.90;;;13.41;50.63;94456.75;10411542;28;1922;-69
2022/02/18 14:57:58;;;;;;;;;;;14.30;99.90;;;13.43;49.87;94446.44;10394772;28;1988;-69
2022/02/18 15:03:02;;;;;;;;;;;14.30;99.90;;;13.38;50.55;94457.41;10406907;28;1859;-70
2022/02/18 15:08:04;;;;;;;;;;;14.30;99.90;;;13.36;50.08;94450.75;10397586;28;1893;-69
2022/02/18 15:13:07;;;;;;;;;;;14.30;99.90;;;13.34;49.82;94431.38;10367357;28;1964;-68
2022/02/18 15:18:10;;;;;;;;;;;14.30;99.90;;;13.43;50.10;94424.06;10432731;28;1785;-70
2022/02/18 15:23:16;;;;;;;;;;;14.20;99.90;;;13.41;49.35;94413.56;10404443;28;1793;-69
2022/02/18 15:28:19;;;;;;;;;;;14.20;99.90;;;13.36;49.62;94402.16;10417321;28;1854;-68
2022/02/18 15:42:07;;;;;;;;;;;14.20;99.90;;;13.55;48.17;94382.84;10412178;28;1860;-69
2022/02/18 15:44:09;;;;;;;;;;;14.30;99.90;;;13.54;48.93;94382.06;10400473;28;1889;-68
2022/02/18 15:49:12;;;;;;;;;;;14.40;99.90;;;13.66;47.73;94373.28;10384442;28;1915;-70
2022/02/18 15:54:15;;;;;;;;;;;14.50;99.90;;;13.83;47.17;94380.50;10416314;28;2180;-68
2022/02/18 15:59:18;;;;;;;;;;;14.60;99.90;;;13.85;46.52;94370.16;10420493;28;1817;-69
2022/02/18 16:04:29;;;;;;;;;;;14.70;99.90;;;13.90;45.89;94362.63;10399854;28;1825;-69
2022/02/18 16:09:32;;;;;;;;;;;14.80;99.90;;;13.90;45.74;94369.97;10395111;28;2016;-69
2022/02/18 16:14:36;;;;;;;;;;;14.90;99.90;;;13.87;46.13;94363.31;10402638;28;2757;-70
2022/02/18 16:19:39;;;;;;;;;;;14.80;99.90;;;13.79;46.43;94362.22;10387921;28;1973;-69
2022/02/18 16:24:42;;;;;;;;;;;14.80;99.90;;;13.92;45.15;94346.09;10415149;28;1932;-71
2022/02/18 16:29:45;;;;;;;;;;;14.80;99.90;;;13.90;44.93;94373.44;10398045;28;2035;-69
2022/02/18 16:34:49;;;;;;;;;;;14.80;99.90;;;13.82;45.32;94362.72;10375922;28;2472;-72
2022/02/18 16:39:52;;;;;;;;;;;14.80;99.90;;;13.81;44.84;94371.94;10385909;28;2329;-71
2022/02/18 16:44:55;;;;;;;;;;;14.70;99.90;;;13.79;44.93;94364.13;10414404;28;1980;-71
2022/02/18 16:49:58;;;;;;;;;;;14.80;99.90;;;13.75;45.11;94358.63;10409688;28;1959;-70
2022/02/18 16:55:01;;;;;;;;;;;14.70;99.90;;;13.76;45.05;94357.50;10412031;28;1912;-71
2022/02/18 17:00:04;;;;;;;;;;;14.60;99.90;;;13.67;45.26;94358.66;10405355;28;2037;-69
2022/02/18 17:05:07;;;;;;;;;;;14.60;99.90;;;13.73;44.94;94357.34;10412625;28;1977;-70
2022/02/18 17:10:10;;;;;;;;;;;14.60;99.90;;;13.75;44.78;94350.53;10412682;28;1985;-70
2022/02/18 17:15:13;;;;;;;;;;;14.70;99.90;;;13.72;45.46;94361.16;10412191;28;2087;-70
2022/02/18 17:20:16;;;;;;;;;;;14.60;99.90;;;13.60;45.19;94359.16;10410161;28;2069;-70
2022/02/18 17:25:19;;;;;;;;;;;14.60;99.90;;;13.72;45.03;94361.16;10410602;28;1976;-69
2022/02/18 17:30:22;;;;;;;;;;;14.60;99.90;;;13.68;44.41;94371.84;10400392;28;2116;-71
2022/02/18 17:35:25;;;;;;;;;;;14.60;99.90;;;13.83;44.93;94370.47;10361726;28;2398;-71
2022/02/18 17:40:29;;;;;;;;;;;14.70;99.90;;;13.71;45.47;94378.50;10360104;28;2568;-70
2022/02/18 17:45:32;;;;;;;;;;;14.60;99.90;;;13.84;45.47;94392.88;10380986;28;2265;-71
2022/02/18 17:50:35;;;;;;;;;;;14.70;99.90;;;13.75;45.73;94387.53;10382388;28;2438;-70
2022/02/18 17:55:39;;;;;;;;;;;14.70;99.90;;;13.72;46.68;94396.28;10360548;28;2099;-72
2022/02/18 18:00:42;;;;;;;;;;;14.70;99.90;;;13.59;47.47;94405.41;10357041;28;2058;-70
2022/02/18 18:05:45;;;;;;;;;;;14.60;99.90;;;13.44;47.99;94394.03;10357782;28;2533;-71
2022/02/18 18:10:48;;;;;;;;;;;14.50;99.90;;;13.47;48.00;94406.88;10362531;28;2074;-70
2022/02/18 18:15:51;;;;;;;;;;;14.40;99.90;;;13.48;48.66;94411.16;10356376;28;2496;-71
2022/02/18 18:20:54;;;;;;;;;;;14.50;99.90;;;13.44;49.24;94409.44;10417404;28;2403;-71
2022/02/18 18:25:57;;;;;;;;;;;14.40;99.90;;;13.44;50.37;94421.03;10435080;28;1981;-69
2022/02/18 18:31:00;;;;;;;;;;;14.30;99.90;;;13.42;51.10;94423.28;10414718;28;2064;-69
2022/02/18 18:36:04;;;;;;;;;;;14.30;99.90;;;13.31;52.04;94405.84;10421030;28;1968;-69
2022/02/18 18:41:07;;;;;;;;;;;14.30;99.90;;;13.28;52.13;94416.50;10419249;28;1957;-69
2022/02/18 18:46:10;;;;;;;;;;;14.20;99.90;;;13.18;53.34;94417.63;10413912;28;1950;-70
2022/02/18 18:51:15;;;;;;;;;;;14.10;99.90;;;13.04;54.00;94428.63;10397914;28;2556;-70
2022/02/18 18:56:18;;;;;;;;;;;14.00;99.90;;;12.89;55.43;94429.09;10388859;28;2000;-70
2022/02/18 19:01:21;;;;;;;;;;;13.90;99.90;;;12.80;56.18;94423.75;10395436;28;2628;-69
2022/02/18 19:06:24;;;;;;;;;;;13.80;99.90;;;12.66;56.91;94431.19;10400764;28;2322;-69
2022/02/18 19:11:27;;;;;;;;;;;13.60;99.90;;;12.50;58.50;94436.28;10401249;28;2051;-69
2022/02/18 19:16:30;;;;;;;;;;;13.60;99.90;;;12.40;58.78;94428.50;10391167;28;2047;-71
2022/02/18 19:21:35;;;;;;;;;;;13.40;99.90;;;12.33;59.85;94423.59;10400303;28;2484;-70
2022/02/18 19:26:38;;;;;;;;;;;13.30;99.90;;;12.33;59.82;94442.47;10412363;28;2251;-70
2022/02/18 19:31:41;;;;;;;;;;;13.30;99.90;;;12.25;61.11;94415.53;10408875;28;2025;-71
2022/02/18 19:36:44;;;;;;;;;;;13.30;99.90;;;12.18;61.30;94443.72;10409273;28;2204;-69
2022/02/18 19:41:47;;;;;;;;;;;13.20;99.90;;;12.34;61.75;94443.25;10413071;28;2490;-70
2022/02/18 19:46:50;;;;;;;;;;;13.20;99.90;;;12.39;62.29;94451.19;10413053;28;2015;-70
2022/02/18 19:51:57;;;;;;;;;;;13.30;99.90;;;12.57;61.71;94451.97;10407297;28;1949;-72
2022/02/18 19:57:00;;;;;;;;;;;13.40;99.90;;;12.76;61.63;94428.19;10409480;28;1977;-70
2022/02/18 20:02:04;;;;;;;;;;;13.50;99.90;;;12.80;61.64;94439.13;10410320;28;1926;-69
2022/02/18 20:07:07;;;;;;;;;;;13.60;99.90;;;12.83;61.76;94466.22;10414343;28;2409;-71
2022/02/18 20:12:10;;;;;;;;;;;13.70;99.90;;;12.82;62.33;94483.53;10412543;28;1985;-70
2022/02/18 20:17:12;;;;;;;;;;;13.70;99.90;;;12.82;62.27;94480.84;10416610;28;1942;-71
2022/02/18 20:22:16;;;;;;;;;;;;;;;12.74;65.61;94505.13;10413741;28;1866;-69
2022/02/18 20:27:19;;;;;;;;;;;;;;;12.47;66.12;94498.13;10417273;28;1934;-71
2022/02/18 20:32:23;;;;;;;;;;;;;;;12.36;67.30;94516.50;10410710;28;1934;-68
2022/02/18 20:37:26;;;;;;;;;;;;;;;12.15;68.71;94537.84;10416529;28;1942;-70
2022/02/18 20:42:29;;;;;;;;;;;12.70;99.90;;;10.38;74.63;94654.81;10415350;28;1812;-71
2022/02/18 20:47:32;;;;;;;;;;;11.40;99.90;;;8.24;91.19;94690.25;10417806;28;1954;-69
2022/02/18 20:52:35;;;;;;;;;;;9.40;99.90;;;7.44;98.52;94738.88;10408725;28;2059;-71
2022/02/18 20:57:38;;;;;;;;;;;8.80;99.90;;;6.98;98.21;94744.50;10414421;28;2296;-72
2022/02/18 21:02:41;;;;;;;;;;;8.20;99.90;;;6.57;99.67;94783.97;10421155;28;1896;-71
2022/02/18 21:07:44;;;;;;;;;;;7.80;99.90;;;6.27;100.00;94803.53;10425153;28;1919;-71
2022/02/18 21:12:48;;;;;;;;;;;7.40;99.90;;;6.25;100.00;94827.03;10425952;28;2009;-71
2022/02/18 21:17:53;;;;;;;;;;;7.30;99.90;;;6.18;100.00;94829.16;10438193;28;1833;-71
2022/02/18 21:22:57;;;;;;;;;;;7.20;99.90;;;6.07;96.43;94830.25;10426857;28;1854;-71
2022/02/18 21:28:01;;;;;;;;;;;7.10;99.90;;;5.91;97.97;94859.56;10434947;28;1838;-70
2022/02/18 21:33:05;;;;;;;;;;;7.00;99.90;;;5.79;98.06;94872.34;10428231;28;1918;-71
2022/02/18 21:38:07;;;;;;;;;;;6.80;99.90;;;5.82;95.04;94876.34;10426852;28;1723;-72
2022/02/18 21:43:11;;;;;;;;;;;6.90;99.90;;;5.76;90.55;94877.41;10415466;28;1849;-71
2022/02/18 21:48:14;;;;;;;;;;;6.70;99.90;;;5.54;89.49;94896.31;10406435;28;1861;-71
2022/02/18 21:53:18;;;;;;;;;;;6.60;99.90;;;5.47;88.18;94893.06;10407907;28;3194;-71
2022/02/18 21:58:22;;;;;;;;;;;6.50;99.90;;;5.48;86.26;94887.50;10416208;28;1739;-71
2022/02/18 22:03:25;;;;;;;;;;;6.50;99.90;;;5.56;86.07;94896.84;10416029;28;1809;-72
2022/02/18 22:08:29;;;;;;;;;;;6.50;99.90;;;5.57;84.88;94911.75;10425785;28;1905;-71
2022/02/18 22:13:32;;;;;;;;;;;6.90;99.90;;;5.60;80.86;94927.25;10417119;28;1906;-70
2022/02/18 22:18:35;;;;;;;;;;;6.70;99.90;;;5.64;80.98;94917.66;10414659;28;1884;-70
2022/02/18 22:23:38;;;;;;;;;;;6.60;99.90;;;5.72;81.48;94929.66;10414489;28;1889;-71
2022/02/18 22:28:41;;;;;;;;;;;6.70;99.90;;;5.73;80.77;94940.09;10409740;28;1815;-71
2022/02/18 22:34:04;;;;;;;;;;;6.80;99.90;;;5.82;80.25;94965.16;10413641;28;2034;-71
2022/02/18 22:39:08;;;;;;;;;;;6.80;99.90;;;5.85;79.64;94967.31;10413020;28;1790;-72
2022/02/18 22:44:11;;;;;;;;;;;6.90;99.90;;;5.84;76.32;94987.03;10414210;28;1829;-71
2022/02/18 22:49:15;;;;;;;;;;;6.90;99.90;;;5.85;73.64;94998.50;10410824;28;1862;-71
2022/02/18 22:54:18;;;;;;;;;;;6.90;99.90;;;5.84;71.65;95008.38;10413404;28;1914;-72
2022/02/18 22:59:21;;;;;;;;;;;6.80;99.90;;;5.84;70.15;95007.56;10410088;28;1889;-71
2022/02/18 23:04:24;;;;;;;;;;;6.80;99.90;;;5.82;69.76;95018.50;10412375;28;1767;-71
2022/02/18 23:09:27;;;;;;;;;;;6.80;99.90;;;5.84;69.21;95039.56;10404756;28;1977;-70
2022/02/18 23:14:30;;;;;;;;;;;6.90;99.90;;;5.91;67.46;95040.94;10406238;28;1919;-71
2022/02/18 23:19:33;;;;;;;;;;;6.90;99.90;;;5.88;67.25;95052.13;10403507;28;1941;-71
2022/02/18 23:24:36;;;;;;;;;;;6.90;99.90;;;5.89;65.69;95069.72;10411587;28;1811;-70
2022/02/18 23:29:39;;;;;;;;;;;7.10;99.90;;;5.91;66.39;95077.50;10405400;28;1951;-70
2022/02/18 23:34:42;;;;;;;;;;;6.90;99.90;;;5.93;66.93;95078.84;10409286;28;1922;-70
2022/02/18 23:39:46;;;;;;;;;;;6.90;99.90;;;5.93;66.00;95084.19;10432225;28;1842;-71
2022/02/18 23:44:50;;;;;;;;;;;6.90;99.90;;;5.97;66.61;95095.94;10408513;28;1968;-71
2022/02/18 23:49:53;;;;;;;;;;;6.90;99.90;;;6.00;67.70;95102.63;10409857;28;1833;-71